Yamagata Airport, Japan

11:11 PM JST on August 20, 2014 (GMT +0900)
Sendai | Change Station
CLOSE
Current Station
Airport
Location: Sendai Airport,
Elevation: 16 ft
Nearby Weather Stations

Elev 16 ft 38.14 °N, 140.92 °E | Updated 2 hours ago

Partly Cloudy
Partly Cloudy
81 °F
Feels Like 86 °F
N
7
Wind Variable Wind from East

Today
High -- | Low -- °F
--% Chance of Precip.
Yesterday
High -- | Low -- °F
Precip. -- in
4:56 AM 6:26 PM
Waning Crescent, 21% visible
Pressure 29.89 in
Visibility 6.2 miles
Clouds Few 3000 ft
Heat Index 86 °F
Dew Point 75 °F
Humidity 84%
Rainfall 0.00 in
Snow Depth Not available.
UV 0 out of 12
Pollen Not available.
Air Quality Not available.
Flu Activity Not available.
METAR RJSS 201200Z 08006KT 9999 FEW030 BKN/// 27/24 Q1012

More Conditions Fewer Conditions

Pressure 29.89 in
Visibility 6.2 miles
Clouds Few 3000 ft
Heat Index 86 °F
Dew Point 75 °F
Humidity 84%
Rainfall 0.00 in
Snow Depth Not available.
UV 0 out of 12
Pollen Not available.
Air Quality Not available.
Flu Activity Not available.
METAR RJSS 201200Z 08006KT 9999 FEW030 BKN/// 27/24 Q1012

More Conditions Fewer Conditions

10-Day Weather Forecast

Almanac

Astronomy

Aug. 20, 2014 Rise Set
Actual Time 4:56 AM JST 6:26 PM JST
Civil Twilight 4:28 AM JST 6:54 PM JST
Nautical Twilight 3:55 AM JST 7:27 PM JST
Astronomical Twilight 3:19 AM JST 8:03 PM JST
Moon 12:07 AM JST 2:39 PM JST
Length of Visible Light 14h 25m
Length of Day
13h 29m
Tomorrow will be 2m 15s shorter.
Waning Crescent, 21% of the Moon is Illuminated
Today
Waning Crescent
Aug 25
New
Sep 2
First Quarter
Sep 8
Full
Sep 15
Last Quarter

Yesterday's Extremes

Country Highs Country Lows

Community

WunderPhotos

Upload Photos

1,745,641 photos uploaded!

Nearby

Snow Depth

Not available.

Earthquake Activity

City Distance Mag. Time & Date
No recent earthquake activity has been reported nearby.
Minimum magnitude displayed is 2.5.

Coastal Water Temperatures

Place Temperature
No Stations Reporting

Nearby Weather Stations